createdAt,value
2023-05-13T07:15:31.346Z,10.60
2023-05-13T07:17:58.143Z,10.80
2023-05-13T07:20:26.607Z,10.90
2023-05-13T07:22:53.659Z,11.00
2023-05-13T07:25:20.659Z,10.90
2023-05-13T07:27:47.974Z,10.90
2023-05-13T07:30:14.837Z,11.00
2023-05-13T07:32:42.049Z,11.20
2023-05-13T07:35:09.819Z,11.10
2023-05-13T07:37:37.181Z,11.20
2023-05-13T07:40:05.261Z,11.30
2023-05-13T07:42:32.453Z,11.30
2023-05-13T07:44:59.234Z,11.60
2023-05-13T07:47:27.745Z,11.80
2023-05-13T07:49:54.874Z,12.00
2023-05-13T07:52:21.678Z,12.10
2023-05-13T07:54:48.449Z,12.10
2023-05-13T07:57:15.339Z,12.20
2023-05-13T07:59:44.550Z,12.30
2023-05-13T08:02:11.982Z,12.40
2023-05-13T08:04:38.739Z,12.40
2023-05-13T08:07:05.706Z,12.30
2023-05-13T08:09:32.515Z,12.30
2023-05-13T08:11:59.277Z,12.30
2023-05-13T11:45:02.317Z,17.50
2023-05-13T11:47:29.130Z,17.70
2023-05-13T11:49:56.033Z,17.70
2023-05-13T11:52:22.848Z,17.90
2023-05-13T11:54:49.678Z,17.90
2023-05-13T11:57:22.306Z,17.70
2023-05-13T11:59:58.616Z,17.60
2023-05-13T12:02:30.147Z,17.30
2023-05-13T12:05:01.286Z,17.30
2023-05-13T12:07:28.088Z,17.30
2023-05-13T12:09:56.979Z,18.10
2023-05-13T12:12:24.006Z,17.60
2023-05-13T12:14:50.879Z,17.80
2023-05-13T12:17:18.473Z,18.00
2023-05-13T12:20:04.066Z,18.00
2023-05-13T12:22:30.981Z,17.80
2023-05-13T12:25:01.104Z,17.50
2023-05-13T12:27:28.063Z,17.10
2023-05-13T12:29:55.356Z,17.10
2023-05-13T12:32:24.057Z,16.90
2023-05-13T12:34:51.387Z,16.70
2023-05-13T12:37:18.294Z,17.10
2023-05-13T12:39:45.019Z,17.20
2023-05-13T12:42:15.472Z,17.20
2023-05-13T12:44:44.166Z,17.00
2023-05-13T12:47:13.156Z,16.70
2023-05-13T12:49:55.855Z,17.00
2023-05-13T12:52:22.768Z,17.20
2023-05-13T12:54:49.622Z,17.30
2023-05-13T12:57:20.656Z,16.90
2023-05-13T12:59:47.441Z,17.10
2023-05-13T13:02:14.292Z,16.60
2023-05-13T13:04:41.154Z,16.40
2023-05-13T13:12:06.745Z,16.50
2023-05-13T13:14:33.716Z,16.00
2023-05-13T13:17:00.610Z,16.20
2023-05-13T13:19:27.451Z,15.50
2023-05-13T13:21:54.235Z,15.60
2023-05-13T13:24:21.178Z,15.10
2023-05-13T13:26:50.094Z,15.50
2023-05-13T13:29:16.878Z,15.00
2023-05-13T13:31:43.655Z,15.00
2023-05-13T13:34:12.332Z,14.90
2023-05-13T13:36:39.624Z,14.60
2023-05-13T13:39:06.738Z,14.70
2023-05-13T13:41:33.575Z,14.40
2023-05-13T13:44:00.509Z,14.30
2023-05-13T13:46:27.351Z,14.20
2023-05-13T13:48:54.194Z,14.00
2023-05-13T13:51:21.548Z,13.80
2023-05-13T13:53:49.160Z,14.00
2023-05-13T13:56:16.029Z,13.90
2023-05-13T13:58:42.844Z,13.90
2023-05-13T14:01:09.599Z,13.80
2023-05-13T14:03:36.526Z,13.80
2023-05-13T14:06:03.463Z,13.70
2023-05-13T14:08:30.194Z,13.70
2023-05-13T14:10:57.972Z,13.40
2023-05-13T14:13:24.803Z,13.40
2023-05-13T14:15:51.751Z,13.40
2023-05-13T14:18:18.572Z,13.30
2023-05-13T14:20:47.574Z,13.10
2023-05-13T14:23:14.412Z,13.00
2023-05-13T14:25:41.271Z,13.00
2023-05-13T14:28:08.066Z,12.90
2023-05-13T14:30:34.966Z,12.70
2023-05-13T14:33:01.981Z,12.50
2023-05-13T14:35:28.900Z,12.70
2023-05-13T14:37:55.881Z,12.70
2023-05-13T14:40:23.057Z,12.70
2023-05-13T14:42:50.145Z,12.60
2023-05-13T14:45:18.529Z,12.40
2023-05-13T14:47:45.786Z,12.50
2023-05-13T14:50:13.091Z,12.60
2023-05-13T14:52:39.854Z,12.70
2023-05-13T14:55:06.867Z,12.70
2023-05-13T14:57:33.924Z,12.60
2023-05-13T15:00:00.892Z,12.50
2023-05-13T15:02:27.789Z,12.50
2023-05-13T15:04:54.738Z,12.60
2023-05-13T15:07:21.588Z,12.40
2023-05-13T15:09:48.630Z,12.40
2023-05-13T15:12:15.514Z,12.40
2023-05-13T15:14:42.346Z,12.20
2023-05-13T15:17:12.210Z,12.30
2023-05-13T15:19:39.602Z,12.40
2023-05-13T15:22:06.407Z,12.10
2023-05-13T15:24:33.172Z,12.20
2023-05-13T15:27:01.247Z,12.00
2023-05-13T15:29:28.001Z,11.90
2023-05-13T15:31:54.851Z,11.80
2023-05-13T15:34:21.570Z,11.70
2023-05-13T15:36:48.312Z,11.80
2023-05-13T15:39:16.640Z,11.80
2023-05-13T15:41:43.591Z,11.90
2023-05-13T15:44:10.405Z,11.80
2023-05-13T15:46:37.316Z,11.90
2023-05-13T15:49:04.148Z,11.90
2023-05-13T15:51:31.746Z,11.80
2023-05-13T15:53:58.612Z,11.80
2023-05-13T15:56:25.908Z,11.70
2023-05-13T15:58:52.870Z,11.70
2023-05-13T16:01:19.719Z,11.70
2023-05-13T16:03:46.660Z,11.60
2023-05-13T16:06:13.538Z,11.60
2023-05-13T16:08:40.437Z,11.80
2023-05-13T16:11:07.205Z,11.90
2023-05-13T16:13:34.008Z,11.90
2023-05-13T16:16:00.925Z,11.70
2023-05-13T16:18:27.759Z,11.80
2023-05-13T16:20:54.979Z,12.10
2023-05-13T16:23:21.941Z,12.30
2023-05-13T16:25:48.784Z,12.60
2023-05-13T16:28:15.590Z,12.70
2023-05-13T16:30:42.742Z,13.10
2023-05-13T16:33:09.691Z,13.40
2023-05-13T16:35:36.639Z,13.60
2023-05-13T16:38:03.413Z,13.70
2023-05-13T16:40:30.176Z,13.70
2023-05-13T16:42:59.858Z,13.70
2023-05-13T16:45:28.691Z,13.70
2023-05-13T16:47:55.585Z,13.70
2023-05-13T16:50:22.844Z,13.70
2023-05-13T16:52:49.987Z,13.60
2023-05-13T16:55:16.983Z,13.80
2023-05-13T16:57:43.812Z,14.00
2023-05-13T17:00:11.111Z,14.10
2023-05-13T17:02:37.994Z,14.00
2023-05-13T17:05:05.073Z,13.50
2023-05-13T17:07:31.861Z,13.30
2023-05-13T17:09:58.699Z,13.40
2023-05-13T17:12:27.290Z,12.80
2023-05-13T17:14:54.224Z,12.60
2023-05-13T17:17:21.420Z,12.20
2023-05-13T17:19:48.333Z,12.00
2023-05-13T17:22:15.170Z,12.00
2023-05-13T17:24:42.016Z,11.90
2023-05-13T17:27:08.922Z,11.80
2023-05-13T17:29:35.723Z,11.60
2023-05-13T17:32:02.462Z,11.40
2023-05-13T17:34:29.354Z,11.10
2023-05-13T17:36:56.199Z,11.00
2023-05-13T17:39:22.974Z,11.00
2023-05-13T17:41:49.735Z,11.00
2023-05-13T17:44:17.160Z,11.10
2023-05-13T17:46:43.936Z,11.10
2023-05-13T17:49:10.816Z,11.10
2023-05-13T17:51:37.743Z,11.10
2023-05-13T17:54:04.544Z,11.10
2023-05-13T17:56:31.331Z,11.00
2023-05-13T17:58:58.476Z,11.00
2023-05-13T18:01:25.367Z,11.00
2023-05-13T18:03:52.351Z,10.90
2023-05-13T18:06:19.352Z,11.00
2023-05-13T18:08:46.284Z,11.00
2023-05-13T18:11:13.031Z,11.00
2023-05-13T18:13:39.956Z,10.90
2023-05-13T18:16:09.187Z,10.90
2023-05-13T18:18:36.054Z,10.90
2023-05-13T18:21:02.979Z,10.80
2023-05-13T18:23:29.853Z,10.90
2023-05-13T18:25:56.711Z,11.00
2023-05-13T18:28:23.781Z,10.90
2023-05-13T18:30:50.657Z,11.00
2023-05-13T18:33:19.274Z,10.90
2023-05-13T18:35:46.247Z,11.00
2023-05-13T18:38:13.133Z,11.10
2023-05-13T18:40:39.950Z,11.00
2023-05-13T18:43:06.781Z,11.00
2023-05-13T18:45:33.795Z,11.00
2023-05-13T18:48:00.783Z,11.00
2023-05-13T18:50:27.758Z,10.90
2023-05-13T18:52:54.652Z,10.90
2023-05-13T18:55:21.623Z,10.90
2023-05-13T18:57:49.279Z,10.80
2023-05-13T19:00:16.366Z,10.70
2023-05-13T19:02:43.476Z,10.60
2023-05-13T19:05:10.602Z,10.70
2023-05-13T19:07:37.381Z,10.60
2023-05-13T19:10:04.255Z,10.60
2023-05-13T19:12:31.002Z,10.50
2023-05-13T19:14:57.770Z,10.50
2023-05-13T19:17:24.763Z,10.40
2023-05-13T19:19:52.172Z,10.30
2023-05-13T19:22:19.198Z,10.30
2023-05-13T19:24:46.068Z,10.30
2023-05-13T19:27:12.978Z,10.30
2023-05-13T19:29:40.038Z,10.20
2023-05-13T19:32:07.027Z,10.20
2023-05-13T19:34:33.781Z,10.20
2023-05-13T19:37:00.545Z,10.10
2023-05-13T19:39:27.378Z,10.10
2023-05-13T19:41:54.130Z,10.10
2023-05-13T19:44:20.956Z,10.10
2023-05-13T19:46:47.902Z,10.20
2023-05-13T19:49:14.702Z,10.20
2023-05-13T19:51:41.952Z,10.10
2023-05-13T19:54:10.986Z,10.10
2023-05-13T19:56:38.532Z,10.10
2023-05-13T19:59:05.487Z,10.10
2023-05-13T20:01:32.406Z,10.10
2023-05-13T20:03:59.414Z,10.10
2023-05-13T20:06:26.546Z,10.10
2023-05-13T20:08:53.355Z,10.10
2023-05-13T20:11:20.167Z,10.10
2023-05-13T20:13:46.957Z,10.00
2023-05-13T20:16:14.201Z,10.00
2023-05-13T20:18:41.211Z,9.90
2023-05-13T20:21:08.184Z,9.90
2023-05-13T20:23:35.013Z,9.90
2023-05-13T20:26:02.348Z,9.90
2023-05-13T20:28:29.242Z,9.90
2023-05-13T20:30:56.292Z,9.90
2023-05-13T20:33:23.218Z,9.90
2023-05-13T20:35:50.007Z,9.90
2023-05-13T20:38:17.080Z,9.80
2023-05-13T20:40:43.834Z,9.90
2023-05-13T20:43:10.644Z,9.90
2023-05-13T20:45:39.691Z,9.90
2023-05-13T20:48:06.975Z,9.90
2023-05-13T20:50:33.847Z,9.90
2023-05-13T20:53:00.816Z,9.90
2023-05-13T20:55:27.742Z,9.90
2023-05-13T20:57:54.498Z,9.90
2023-05-13T21:00:21.684Z,9.90
2023-05-13T21:02:50.476Z,9.80
2023-05-13T21:05:17.368Z,9.90
2023-05-13T21:07:44.138Z,9.80
2023-05-13T21:10:11.011Z,9.80
2023-05-13T21:12:37.791Z,9.80
2023-05-13T21:15:04.968Z,9.80
2023-05-13T21:17:31.855Z,9.80
2023-05-13T21:19:59.005Z,9.80
2023-05-13T21:22:25.773Z,9.80
2023-05-13T21:24:52.699Z,9.80
2023-05-13T21:27:19.672Z,9.80
2023-05-13T21:29:46.475Z,9.80
2023-05-13T21:32:13.407Z,9.80
2023-05-13T21:34:40.926Z,9.70
2023-05-13T21:37:07.819Z,9.70
2023-05-13T21:39:34.699Z,9.80
2023-05-13T21:42:01.538Z,9.70
2023-05-13T21:44:29.289Z,9.70
2023-05-13T21:46:56.324Z,9.70
2023-05-13T21:49:23.123Z,9.70
2023-05-13T21:51:50.000Z,9.70
2023-05-13T21:54:17.720Z,9.70
2023-05-13T21:56:44.558Z,9.70
2023-05-13T21:59:11.407Z,9.70
2023-05-13T22:01:38.220Z,9.70
2023-05-13T22:04:05.017Z,9.70
2023-05-13T22:06:33.598Z,9.60
2023-05-13T22:09:01.337Z,9.60
2023-05-13T22:11:28.101Z,9.60
2023-05-13T22:13:54.899Z,9.60
2023-05-13T22:16:21.993Z,9.70
2023-05-13T22:18:49.970Z,9.70
2023-05-13T22:21:16.966Z,9.60
2023-05-13T22:23:43.792Z,9.60
2023-05-13T22:26:10.584Z,9.60
2023-05-13T22:28:37.405Z,9.50
2023-05-13T22:31:04.319Z,9.60
2023-05-13T22:33:31.124Z,9.50
2023-05-13T22:35:58.001Z,9.50
2023-05-13T22:38:24.854Z,9.50
2023-05-13T22:40:51.594Z,9.50
2023-05-13T22:43:18.368Z,9.50
2023-05-13T22:45:45.272Z,9.50
2023-05-13T22:48:12.133Z,9.50
2023-05-13T22:50:39.262Z,9.50
2023-05-13T22:53:06.020Z,9.50
2023-05-13T22:55:32.780Z,9.50
2023-05-13T22:57:59.578Z,9.50
2023-05-13T23:00:26.388Z,9.40
2023-05-13T23:02:53.187Z,9.40
2023-05-13T23:05:20.059Z,9.50
2023-05-13T23:07:46.825Z,9.50
2023-05-13T23:10:13.618Z,9.50
2023-05-13T23:12:40.519Z,9.40
2023-05-13T23:15:07.636Z,9.40
2023-05-13T23:17:34.477Z,9.40
2023-05-13T23:20:01.308Z,9.40
2023-05-13T23:22:28.064Z,9.40
2023-05-13T23:24:54.851Z,9.50
2023-05-13T23:27:21.848Z,9.40
2023-05-13T23:29:48.632Z,9.50
2023-05-13T23:32:16.100Z,9.40
2023-05-13T23:34:42.905Z,9.40
2023-05-13T23:37:09.711Z,9.40
2023-05-13T23:39:36.520Z,9.40
2023-05-13T23:42:03.412Z,9.40
2023-05-13T23:44:30.366Z,9.40
2023-05-13T23:46:57.167Z,9.30
2023-05-13T23:49:24.072Z,9.30
2023-05-13T23:51:50.894Z,9.30
2023-05-13T23:54:17.690Z,9.30
2023-05-13T23:56:44.515Z,9.20
2023-05-13T23:59:11.431Z,9.20
